Time;durP1;ratioP1;P1;durP2;ratioP2;P2;SDS_P1;SDS_P2;PMS_P1;PMS_P2;Temp;Humidity;BMP_temperature;BMP_pressure;BME280_temperature;BME280_humidity;BME280_pressure;Samples;Min_cycle;Max_cycle;Signal;HPM_P1;HPM_P2
2023/07/21 00:01:28;;;;;;;2.53;1.95;;;;;;;16.26;72.29;101437.81;6109369;19;20528;-71
2023/07/21 00:03:33;;;;;;;3.20;2.00;;;;;;;16.19;72.85;101437.31;6111024;19;20021;-69
2023/07/21 00:05:41;;;;;;;3.47;2.22;;;;;;;16.19;72.90;101431.13;6111340;19;20006;-70
2023/07/21 00:07:49;;;;;;;2.67;2.05;;;;;;;16.17;72.81;101431.22;6110932;19;20014;-70
2023/07/21 00:09:54;;;;;;;2.15;1.75;;;;;;;16.18;72.66;101434.72;6106718;19;20026;-69
2023/07/21 00:12:03;;;;;;;3.58;2.38;;;;;;;16.23;73.26;101432.69;6108802;19;20038;-70
2023/07/21 00:14:11;;;;;;;2.75;2.00;;;;;;;16.22;72.89;101434.50;6110139;19;20018;-70
2023/07/21 00:16:18;;;;;;;3.20;2.17;;;;;;;16.21;72.66;101429.25;6109451;19;20496;-69
2023/07/21 00:18:23;;;;;;;2.85;1.88;;;;;;;16.15;73.39;101429.59;6110972;19;20014;-70
2023/07/21 00:20:29;;;;;;;3.97;2.17;;;;;;;16.11;72.98;101434.19;6109181;19;20010;-70
2023/07/21 00:22:34;;;;;;;3.90;2.17;;;;;;;16.12;73.01;101433.28;6110778;19;20026;-70
2023/07/21 00:24:40;;;;;;;4.82;3.10;;;;;;;16.13;73.24;101436.78;6111334;19;20009;-70
2023/07/21 00:26:48;;;;;;;2.58;2.00;;;;;;;16.12;72.92;101441.22;6110111;19;20023;-70
2023/07/21 00:28:57;;;;;;;2.90;1.92;;;;;;;16.10;73.18;101437.78;6110216;19;20046;-69
2023/07/21 00:31:03;;;;;;;3.03;2.10;;;;;;;16.10;73.46;101429.00;6109100;19;20393;-73
2023/07/21 00:33:06;;;;;;;5.43;2.30;;;;;;;16.10;73.66;101431.66;6112472;19;20019;-69
2023/07/21 00:35:12;;;;;;;2.58;2.10;;;;;;;16.14;73.95;101431.41;6110919;19;20360;-69
2023/07/21 00:37:18;;;;;;;2.80;2.10;;;;;;;16.11;73.77;101428.88;6111548;19;20010;-69
2023/07/21 00:39:23;;;;;;;4.82;2.25;;;;;;;16.11;74.10;101425.38;6115117;19;20016;-74
2023/07/21 00:41:28;;;;;;;2.50;2.03;;;;;;;16.13;74.42;101426.16;6112007;19;20495;-73
2023/07/21 00:43:33;;;;;;;5.65;2.97;;;;;;;16.12;73.85;101422.66;6115607;19;20025;-75
2023/07/21 00:45:40;;;;;;;4.32;2.60;;;;;;;16.07;74.10;101422.06;6113482;19;20075;-74
2023/07/21 00:47:45;;;;;;;5.05;2.60;;;;;;;16.09;73.92;101420.19;6113899;19;20468;-73
2023/07/21 00:49:50;;;;;;;5.15;2.92;;;;;;;16.13;73.90;101421.72;6113726;19;20463;-74
2023/07/21 00:51:55;;;;;;;4.25;2.63;;;;;;;16.11;73.85;101417.44;6112730;19;20002;-73
2023/07/21 00:54:02;;;;;;;5.03;2.80;;;;;;;16.10;74.46;101411.28;6112722;19;20019;-73
2023/07/21 00:56:10;;;;;;;3.88;2.60;;;;;;;16.08;74.17;101413.16;6112962;19;20011;-75
2023/07/21 00:58:17;;;;;;;7.50;3.17;;;;;;;16.08;74.29;101409.66;6111976;19;20014;-74
2023/07/21 01:00:22;;;;;;;5.47;2.95;;;;;;;16.05;74.29;101408.03;6111304;19;20062;-74
2023/07/21 01:02:32;;;;;;;4.75;2.58;;;;;;;15.94;74.30;101405.09;6110486;19;20027;-74
2023/07/21 01:04:44;;;;;;;3.75;2.40;;;;;;;15.92;74.65;101399.88;6108630;19;19998;-74
2023/07/21 01:06:52;;;;;;;4.05;2.50;;;;;;;15.89;73.65;101392.09;6109526;19;20044;-73
2023/07/21 01:09:01;;;;;;;4.32;2.75;;;;;;;15.86;74.74;101402.88;6110277;19;20448;-73
2023/07/21 01:11:08;;;;;;;3.55;2.30;;;;;;;15.82;74.71;101398.66;6109311;19;20049;-73
2023/07/21 01:13:14;;;;;;;3.58;2.30;;;;;;;15.88;74.83;101395.69;6109798;19;20011;-71
2023/07/21 01:15:19;;;;;;;3.95;2.25;;;;;;;15.80;75.69;101388.16;6108961;19;20454;-71
2023/07/21 01:17:28;;;;;;;5.43;2.72;;;;;;;15.74;75.93;101390.25;6110383;19;20011;-70
2023/07/21 01:19:39;;;;;;;4.43;2.13;;;;;;;15.71;75.73;101390.44;6109411;19;20014;-70
2023/07/21 01:21:48;;;;;;;4.82;2.35;;;;;;;15.63;76.51;101390.81;6108681;19;20007;-74
2023/07/21 01:23:59;;;;;;;3.25;2.03;;;;;;;15.58;75.57;101384.88;6108110;19;20027;-73
2023/07/21 01:26:09;;;;;;;4.35;2.40;;;;;;;15.48;76.19;101381.00;6109051;19;20081;-75
2023/07/21 01:28:15;;;;;;;4.30;2.38;;;;;;;15.50;76.85;101387.09;6108022;19;20031;-74
2023/07/21 01:30:20;;;;;;;3.10;2.28;;;;;;;15.43;77.10;101383.91;6111342;19;20009;-75
2023/07/21 01:32:27;;;;;;;3.60;2.17;;;;;;;15.35;76.98;101379.00;6115863;19;20015;-75
2023/07/21 01:34:34;;;;;;;2.85;2.13;;;;;;;15.31;76.59;101373.94;6115436;19;20138;-75
2023/07/21 01:36:41;;;;;;;5.18;2.35;;;;;;;15.13;78.32;101375.75;6115981;19;20014;-75
2023/07/21 01:38:48;;;;;;;4.32;2.40;;;;;;;15.08;78.12;101372.47;6116563;19;20055;-77
2023/07/21 01:40:51;;;;;;;3.72;2.47;;;;;;;15.14;79.01;101370.38;6113244;19;20019;-73
2023/07/21 01:43:02;;;;;;;2.65;2.15;;;;;;;15.19;79.28;101374.56;6114255;19;20120;-73
2023/07/21 01:45:11;;;;;;;3.47;2.22;;;;;;;15.16;79.30;101370.28;6113810;19;20079;-73
2023/07/21 01:47:16;;;;;;;7.22;2.65;;;;;;;15.15;80.32;101376.53;6115681;19;20463;-75
2023/07/21 01:49:22;;;;;;;4.68;2.38;;;;;;;15.11;79.59;101372.31;6114144;19;20002;-73
2023/07/21 01:51:34;;;;;;;4.13;2.30;;;;;;;15.10;80.61;101375.91;6116581;19;20522;-75
2023/07/21 01:53:41;;;;;;;2.83;2.17;;;;;;;15.09;78.82;101364.47;6117363;19;20042;-74
2023/07/21 01:55:55;;;;;;;4.07;2.28;;;;;;;15.11;78.78;101365.25;6115866;19;20006;-74
2023/07/21 01:58:09;;;;;;;3.90;2.22;;;;;;;15.12;78.39;101374.03;6112723;19;20488;-75
2023/07/21 02:00:16;;;;;;;3.60;2.60;;;;;;;15.15;79.97;101373.88;6115735;19;20541;-74
2023/07/21 02:02:22;;;;;;;4.30;2.30;;;;;;;15.17;79.79;101368.53;6113990;19;20366;-73
2023/07/21 02:04:28;;;;;;;3.17;2.20;;;;;;;15.21;79.01;101375.34;6114813;19;20054;-73
2023/07/21 02:06:34;;;;;;;3.58;2.30;;;;;;;15.18;79.17;101368.44;6116003;19;20011;-74
2023/07/21 02:08:39;;;;;;;5.03;2.72;;;;;;;15.15;78.96;101372.09;6112872;19;20038;-74
2023/07/21 02:10:44;;;;;;;3.53;2.28;;;;;;;15.10;79.81;101370.63;6115350;19;20046;-74
2023/07/21 02:12:49;;;;;;;4.43;2.70;;;;;;;15.07;80.13;101371.63;6115173;19;20026;-75
2023/07/21 02:14:58;;;;;;;5.00;2.50;;;;;;;15.08;79.95;101377.78;6113826;19;20360;-75
2023/07/21 02:17:03;;;;;;;5.53;2.40;;;;;;;15.07;79.29;101379.56;6114564;19;20002;-73
2023/07/21 02:19:09;;;;;;;4.28;3.00;;;;;;;14.98;80.88;101373.88;6112501;19;20458;-73
2023/07/21 02:21:14;;;;;;;5.57;3.00;;;;;;;15.04;81.39;101363.84;6113020;19;20013;-73
2023/07/21 02:23:17;;;;;;;3.55;2.17;;;;;;;15.07;80.51;101362.84;6113368;19;20419;-75
2023/07/21 02:25:22;;;;;;;;;;;;;;;15.01;80.96;101366.66;6115871;19;20014;-72
2023/07/21 02:27:27;;;;;;;5.10;2.58;;;;;;;14.97;81.63;101364.22;6112738;19;19921;-74
2023/07/21 02:29:32;;;;;;;;;;;;;;;15.00;82.01;101361.41;6113607;19;20034;-72
2023/07/21 02:31:40;;;;;;;3.85;2.40;;;;;;;15.01;81.38;101364.00;6114213;19;19930;-73
2023/07/21 02:33:46;;;;;;;4.70;2.50;;;;;;;15.05;80.75;101359.41;6113622;19;20491;-72
2023/07/21 02:35:51;;;;;;;3.88;2.40;;;;;;;15.03;81.12;101356.81;6115150;19;20011;-73
2023/07/21 02:38:00;;;;;;;4.70;2.60;;;;;;;15.12;81.31;101360.81;6109730;19;20007;-74
2023/07/21 02:40:09;;;;;;;5.25;2.70;;;;;;;15.12;81.58;101347.56;6110228;19;20011;-71
2023/07/21 02:42:14;;;;;;;4.75;2.53;;;;;;;15.10;81.87;101349.44;6110529;19;20077;-70
2023/07/21 02:44:22;;;;;;;4.22;2.42;;;;;;;15.01;82.21;101349.88;6111944;19;20011;-71
2023/07/21 02:46:27;;;;;;;6.68;2.80;;;;;;;14.90;81.47;101351.31;6113164;19;20031;-71
2023/07/21 02:48:36;;;;;;;4.70;2.70;;;;;;;14.80;82.48;101351.84;6110759;19;20046;-71
2023/07/21 02:50:42;;;;;;;5.15;2.95;;;;;;;14.71;82.64;101351.34;6112922;19;20341;-74
2023/07/21 02:52:47;;;;;;;7.22;2.72;;;;;;;14.68;81.92;101354.16;6112428;19;20014;-74
2023/07/21 02:54:52;;;;;;;6.15;2.78;;;;;;;14.62;82.36;101354.47;6113840;19;20038;-74
2023/07/21 02:56:59;;;;;;;6.78;2.97;;;;;;;14.50;82.58;101355.88;6113170;19;20075;-75
2023/07/21 02:59:04;;;;;;;4.82;2.72;;;;;;;14.41;83.09;101345.75;6113420;19;20075;-74
2023/07/21 03:01:12;;;;;;;4.20;2.20;;;;;;;14.37;83.23;101346.81;6110766;19;20015;-74
2023/07/21 03:03:18;;;;;;;5.55;2.92;;;;;;;14.41;83.16;101347.56;6109955;19;20494;-70
2023/07/21 03:05:27;;;;;;;5.13;2.35;;;;;;;14.42;84.47;101346.63;6110211;19;20054;-71
2023/07/21 03:07:34;;;;;;;4.35;2.58;;;;;;;14.44;83.81;101337.69;6111049;19;20006;-72
2023/07/21 03:09:40;;;;;;;6.18;3.00;;;;;;;14.43;83.67;101341.25;6112104;19;20018;-71
2023/07/21 03:11:45;;;;;;;6.45;2.60;;;;;;;14.38;84.77;101338.00;6111468;19;20389;-71
2023/07/21 03:13:51;;;;;;;5.05;2.70;;;;;;;14.38;84.53;101340.63;6112516;19;20018;-72
2023/07/21 03:15:56;;;;;;;4.25;2.47;;;;;;;14.35;84.54;101343.44;6109516;19;20013;-70
2023/07/21 03:18:06;;;;;;;4.32;2.58;;;;;;;14.28;85.17;101339.34;6113306;19;20380;-71
2023/07/21 03:20:15;;;;;;;4.68;2.60;;;;;;;14.22;85.17;101339.66;6111248;19;20101;-75
2023/07/21 03:22:22;;;;;;;4.30;2.78;;;;;;;14.23;84.91;101334.28;6112476;19;20014;-74
2023/07/21 03:24:32;;;;;;;5.20;2.92;;;;;;;14.22;85.16;101329.09;6114318;19;20006;-76
2023/07/21 03:26:39;;;;;;;4.63;2.67;;;;;;;14.22;85.68;101323.81;6114962;19;20057;-75
2023/07/21 03:28:44;;;;;;;4.90;2.55;;;;;;;14.16;84.96;101321.44;6114419;19;20022;-74
2023/07/21 03:30:58;;;;;;;6.78;3.22;;;;;;;14.11;86.67;101321.63;6116265;19;20516;-73
2023/07/21 03:33:04;;;;;;;3.97;2.60;;;;;;;14.17;86.58;101325.81;6117699;19;20320;-73
2023/07/21 03:35:10;;;;;;;5.30;3.10;;;;;;;14.25;86.14;101323.66;6116535;19;20026;-73
2023/07/21 03:37:15;;;;;;;4.85;2.83;;;;;;;14.30;86.23;101318.13;6118285;19;20031;-73
2023/07/21 03:39:23;;;;;;;5.45;2.97;;;;;;;14.32;85.77;101322.41;6117171;19;20338;-74
2023/07/21 03:41:28;;;;;;;4.75;2.63;;;;;;;14.29;86.90;101322.56;6117487;19;20471;-73
2023/07/21 03:43:31;;;;;;;5.47;3.15;;;;;;;14.29;85.98;101319.91;6116001;19;20463;-73
2023/07/21 03:45:36;;;;;;;;;;;;;;;14.27;86.60;101321.78;6117098;19;20011;-73
2023/07/21 03:47:41;;;;;;;7.22;3.72;;;;;;;14.24;87.10;101321.91;6116435;19;19938;-72
2023/07/21 03:49:46;;;;;;;6.53;3.20;;;;;;;14.25;86.98;101321.00;6117917;19;20018;-73
2023/07/21 03:51:53;;;;;;;5.93;3.30;;;;;;;14.22;86.86;101318.50;6115482;19;20010;-74
2023/07/21 03:53:59;;;;;;;5.60;3.00;;;;;;;14.26;86.56;101320.06;6113424;19;20022;-73
2023/07/21 03:56:07;;;;;;;7.70;3.58;;;;;;;14.34;87.61;101317.91;6118058;19;20014;-74
2023/07/21 03:58:13;;;;;;;7.20;3.30;;;;;;;14.37;86.84;101316.91;6116989;19;20015;-74
2023/07/21 04:00:19;;;;;;;8.38;3.97;;;;;;;14.32;87.47;101309.19;6116384;19;20035;-72
2023/07/21 04:02:25;;;;;;;8.93;3.90;;;;;;;14.35;87.19;101314.34;6118590;19;20011;-75
2023/07/21 04:04:32;;;;;;;7.30;3.28;;;;;;;14.35;86.70;101309.06;6117153;19;20543;-75
2023/07/21 04:06:38;;;;;;;6.32;3.67;;;;;;;14.33;86.61;101307.41;6114229;19;20094;-74
2023/07/21 04:08:43;;;;;;;7.03;3.38;;;;;;;14.38;86.92;101311.53;6115079;19;20014;-73
2023/07/21 04:10:49;;;;;;;6.78;3.78;;;;;;;14.42;86.48;101315.72;6105945;19;20021;-73
2023/07/21 04:12:58;;;;;;;6.63;3.38;;;;;;;14.44;86.25;101310.38;6111912;19;20497;-75
2023/07/21 04:15:03;;;;;;;6.30;3.38;;;;;;;14.44;86.16;101313.88;6110808;19;20144;-73
2023/07/21 04:17:11;;;;;;;6.50;3.33;;;;;;;14.49;85.59;101303.94;6110583;19;20470;-74
2023/07/21 04:19:16;;;;;;;6.63;3.58;;;;;;;14.53;86.44;101306.44;6110662;19;20016;-75
2023/07/21 04:21:22;;;;;;;6.93;3.83;;;;;;;14.58;86.84;101302.66;6110179;19;20388;-73
2023/07/21 04:23:34;;;;;;;6.50;3.40;;;;;;;14.60;86.44;101305.22;6110028;19;20027;-73
2023/07/21 04:25:39;;;;;;;6.27;3.50;;;;;;;14.63;87.53;101295.34;6109506;19;20078;-74
2023/07/21 04:27:45;;;;;;;4.82;3.05;;;;;;;14.69;87.01;101296.81;6110811;19;20319;-74
2023/07/21 04:29:54;;;;;;;5.68;3.17;;;;;;;14.72;87.23;101301.97;6110159;19;20090;-74
2023/07/21 04:31:59;;;;;;;6.65;3.22;;;;;;;14.75;87.42;101296.53;6106434;19;20089;-74
2023/07/21 04:34:04;;;;;;;6.32;3.13;;;;;;;14.81;87.35;101300.66;6111425;19;20533;-75
2023/07/21 04:36:10;;;;;;;6.15;3.70;;;;;;;14.84;86.91;101301.34;6110687;19;20535;-75
2023/07/21 04:38:15;;;;;;;8.02;4.38;;;;;;;14.80;87.25;101302.44;6110325;19;20025;-71
2023/07/21 04:40:20;;;;;;;6.85;3.72;;;;;;;14.75;86.92;101304.47;6107804;19;20086;-75
2023/07/21 04:42:29;;;;;;;7.85;3.88;;;;;;;14.78;87.06;101300.81;6107988;19;20130;-70
2023/07/21 04:44:34;;;;;;;6.93;3.70;;;;;;;14.82;87.25;101299.69;6109418;19;20019;-75
2023/07/21 04:46:46;;;;;;;8.98;4.47;;;;;;;14.88;87.30;101302.91;6109518;19;20011;-73
2023/07/21 04:48:52;;;;;;;6.90;3.63;;;;;;;14.95;86.30;101302.56;6109721;19;20469;-73
2023/07/21 04:50:58;;;;;;;8.00;4.45;;;;;;;15.01;86.57;101297.84;6110244;19;20114;-76
2023/07/21 04:53:03;;;;;;;8.68;3.80;;;;;;;15.04;86.59;101294.19;6108728;19;19998;-74
2023/07/21 04:55:09;;;;;;;7.88;3.75;;;;;;;15.10;86.57;101296.50;6110023;19;20011;-73
2023/07/21 04:57:14;;;;;;;8.88;4.35;;;;;;;15.15;86.10;101292.66;6102735;19;20019;-73
2023/07/21 04:59:20;;;;;;;7.50;4.15;;;;;;;15.19;85.71;101293.34;6109788;19;20163;-74
2023/07/21 05:01:26;;;;;;;9.73;5.13;;;;;;;15.18;85.81;101304.03;6109479;19;20018;-75
2023/07/21 05:03:38;;;;;;;8.98;4.28;;;;;;;15.26;85.35;101296.53;6109407;19;20026;-72
2023/07/21 05:05:43;;;;;;;8.60;3.95;;;;;;;15.23;84.88;101289.63;6109553;19;20082;-71
2023/07/21 05:07:48;;;;;;;9.30;4.45;;;;;;;15.25;85.59;101294.84;6115743;19;20464;-69
2023/07/21 05:09:55;;;;;;;10.13;4.97;;;;;;;15.23;85.18;101291.41;6113888;19;20032;-70
2023/07/21 05:12:02;;;;;;;9.38;4.80;;;;;;;15.27;84.90;101292.94;6112862;19;20019;-70
2023/07/21 05:14:07;;;;;;;9.63;4.68;;;;;;;15.36;84.85;101290.69;6115736;19;20474;-69
2023/07/21 05:16:12;;;;;;;8.43;4.78;;;;;;;15.42;84.91;101300.09;6114336;19;20010;-70
2023/07/21 05:18:17;;;;;;;12.20;5.20;;;;;;;15.43;84.47;101300.94;6112409;19;20451;-70
2023/07/21 05:20:25;;;;;;;10.07;5.43;;;;;;;15.47;84.04;101289.25;6114541;19;20098;-71
2023/07/21 05:22:33;;;;;;;11.45;5.13;;;;;;;15.46;83.21;101295.50;6112511;19;20039;-71
2023/07/21 05:24:40;;;;;;;8.85;5.10;;;;;;;15.48;83.57;101299.78;6113530;19;20034;-72
2023/07/21 05:26:46;;;;;;;9.43;5.13;;;;;;;15.45;83.27;101291.13;6114428;19;20372;-69
2023/07/21 05:28:54;;;;;;;8.68;5.22;;;;;;;15.39;84.11;101292.31;6115249;19;20006;-69
2023/07/21 05:31:03;;;;;;;10.45;5.22;;;;;;;15.39;84.05;101288.81;6110987;19;20035;-70
2023/07/21 05:33:09;;;;;;;10.57;5.55;;;;;;;15.52;83.60;101281.91;6108843;19;20014;-71
2023/07/21 05:35:23;;;;;;;8.65;4.82;;;;;;;15.57;83.05;101280.72;6117054;19;20485;-68
2023/07/21 05:38:00;;;;;;;9.85;4.90;;;;;;;15.65;83.00;101287.41;6092746;19;20047;-69
2023/07/21 05:40:07;;;;;;;10.80;5.82;;;;;;;15.72;82.24;101288.81;6110774;19;20015;-69
2023/07/21 05:42:13;;;;;;;13.80;5.97;;;;;;;15.73;82.10;101280.78;6115638;19;20015;-72
2023/07/21 05:44:16;;;;;;;10.65;5.70;;;;;;;15.74;81.78;101277.16;6115681;19;20023;-71
2023/07/21 05:46:21;;;;;;;11.95;5.60;;;;;;;15.79;81.73;101280.41;6111914;19;20050;-72
2023/07/21 05:48:29;;;;;;;10.98;5.32;;;;;;;15.82;82.00;101281.19;6113052;19;20394;-71
2023/07/21 05:50:39;;;;;;;10.52;5.40;;;;;;;15.88;82.13;101280.88;6113639;19;20018;-71
2023/07/21 05:52:46;;;;;;;9.00;4.93;;;;;;;15.94;81.70;101278.72;6114696;19;20491;-69
2023/07/21 05:54:55;;;;;;;10.50;5.78;;;;;;;15.94;81.68;101289.31;6115324;19;20046;-69
2023/07/21 05:57:02;;;;;;;13.15;6.03;;;;;;;15.93;81.63;101279.69;6112655;19;20046;-70
2023/07/21 05:59:08;;;;;;;9.90;5.43;;;;;;;16.00;81.67;101282.81;6113379;19;20107;-70
2023/07/21 06:01:13;;;;;;;9.38;5.07;;;;;;;16.08;81.37;101279.75;6113500;19;20009;-71
2023/07/21 06:03:18;;;;;;;11.57;5.72;;;;;;;16.13;81.79;101283.84;6109378;19;20090;-70
2023/07/21 06:05:28;;;;;;;10.57;5.35;;;;;;;16.22;81.24;101272.72;6111135;19;20014;-71
2023/07/21 06:07:33;;;;;;;12.68;5.82;;;;;;;16.27;80.59;101271.59;6111839;19;20090;-70
2023/07/21 06:09:44;;;;;;;11.10;5.63;;;;;;;16.29;80.91;101278.50;6110675;19;20375;-71
2023/07/21 06:11:52;;;;;;;10.82;6.10;;;;;;;16.28;80.62;101275.97;6113706;19;19999;-70
2023/07/21 06:13:58;;;;;;;16.40;7.85;;;;;;;16.24;80.92;101281.47;6110768;19;20007;-71
2023/07/21 06:16:03;;;;;;;14.20;7.07;;;;;;;16.28;80.42;101278.63;6112211;19;20098;-69
2023/07/21 06:18:10;;;;;;;12.05;7.18;;;;;;;16.36;79.88;101276.38;6113718;19;20025;-70
2023/07/21 06:20:17;;;;;;;13.13;6.93;;;;;;;16.37;80.58;101280.72;6115191;19;20078;-71
2023/07/21 06:22:22;;;;;;;13.00;5.95;;;;;;;16.51;80.29;101288.75;6112074;19;20038;-70
2023/07/21 06:24:29;;;;;;;14.38;6.65;;;;;;;16.62;79.93;101280.16;6110937;19;20018;-70
2023/07/21 06:26:35;;;;;;;10.98;5.60;;;;;;;16.73;79.43;101287.50;6110630;19;20034;-71
2023/07/21 06:28:43;;;;;;;14.95;6.97;;;;;;;16.72;78.56;101296.38;6112835;19;20051;-71
2023/07/21 06:30:48;;;;;;;16.98;6.65;;;;;;;16.81;78.53;101286.13;6102583;19;20060;-72
2023/07/21 06:32:53;;;;;;;12.30;5.82;;;;;;;16.94;78.53;101285.41;6112565;19;20387;-70
2023/07/21 06:35:03;;;;;;;13.88;6.97;;;;;;;16.99;77.46;101288.63;6112418;19;20379;-70
2023/07/21 06:37:09;;;;;;;12.52;7.00;;;;;;;17.01;76.01;101292.91;6113198;19;20022;-70
2023/07/21 06:39:11;;;;;;;11.77;6.30;;;;;;;17.05;75.45;101285.59;6113390;19;20091;-70
2023/07/21 06:41:16;;;;;;;12.00;6.75;;;;;;;17.18;75.31;101283.91;6112297;19;20014;-73
2023/07/21 06:43:22;;;;;;;13.70;6.53;;;;;;;17.22;75.52;101281.91;6113192;19;20029;-74
2023/07/21 06:45:33;;;;;;;10.68;5.78;;;;;;;17.37;73.37;101282.78;6113646;19;20071;-73
2023/07/21 06:47:39;;;;;;;10.57;5.15;;;;;;;17.42;72.24;101281.53;6114796;19;20023;-73
2023/07/21 06:49:44;;;;;;;11.15;5.35;;;;;;;17.50;71.99;101283.72;6113941;19;20352;-74
2023/07/21 06:51:49;;;;;;;10.68;5.30;;;;;;;17.65;72.45;101276.59;6113044;19;20026;-73
2023/07/21 06:53:54;;;;;;;9.38;4.90;;;;;;;17.86;71.14;101275.25;6111877;19;20474;-71
2023/07/21 06:56:02;;;;;;;11.30;4.47;;;;;;;17.64;70.09;101272.22;6114976;19;20398;-74
2023/07/21 06:58:08;;;;;;;8.07;4.45;;;;;;;17.85;70.52;101278.88;6112556;19;20045;-73
2023/07/21 07:00:15;;;;;;;7.75;4.00;;;;;;;18.03;67.98;101271.50;6117481;19;20101;-73
2023/07/21 07:02:23;;;;;;;7.90;3.90;;;;;;;18.05;68.52;101274.06;6115574;19;20011;-73
2023/07/21 07:04:28;;;;;;;6.88;3.20;;;;;;;18.36;67.92;101272.91;6116308;19;20086;-73
2023/07/21 07:06:33;;;;;;;9.40;3.40;;;;;;;18.59;67.66;101274.88;6116656;19;20013;-74
2023/07/21 07:08:40;;;;;;;7.13;3.67;;;;;;;18.64;66.34;101278.09;6117599;19;20015;-74
2023/07/21 07:10:48;;;;;;;6.72;3.42;;;;;;;18.71;65.35;101272.34;6116400;19;20014;-74
2023/07/21 07:12:54;;;;;;;8.00;3.00;;;;;;;18.50;63.74;101277.31;6116557;19;20475;-74
2023/07/21 07:15:01;;;;;;;4.03;2.55;;;;;;;18.59;62.74;101271.38;6113677;19;20079;-75
2023/07/21 07:17:06;;;;;;;4.45;2.22;;;;;;;18.84;64.23;101265.25;6114628;19;20023;-74
2023/07/21 07:19:14;;;;;;;5.95;2.53;;;;;;;18.74;64.06;101267.66;6114498;19;20309;-73
2023/07/21 07:21:21;;;;;;;7.28;3.17;;;;;;;18.84;62.78;101274.09;6114055;19;20014;-74
2023/07/21 07:23:27;;;;;;;8.10;3.80;;;;;;;19.01;62.58;101264.09;6115019;19;20075;-74
2023/07/21 07:25:34;;;;;;;7.32;3.10;;;;;;;19.11;60.93;101270.47;6110234;19;20036;-73
2023/07/21 07:27:40;;;;;;;7.18;3.35;;;;;;;19.07;61.14;101259.19;6111734;19;20019;-70
2023/07/21 07:29:45;;;;;;;6.93;2.75;;;;;;;19.25;58.81;101258.88;6110820;19;20002;-71
2023/07/21 07:31:50;;;;;;;6.15;2.85;;;;;;;19.40;60.27;101260.44;6110307;19;20431;-71
2023/07/21 07:33:57;;;;;;;6.40;3.03;;;;;;;19.54;59.29;101262.16;6107118;19;20010;-72
2023/07/21 07:36:04;;;;;;;7.95;3.60;;;;;;;19.72;58.21;101260.84;6111365;19;20365;-70
2023/07/21 07:38:10;;;;;;;6.90;3.55;;;;;;;19.88;55.89;101265.91;6110667;19;20006;-71
2023/07/21 07:40:15;;;;;;;5.32;2.97;;;;;;;20.16;55.28;101261.22;6110561;19;20030;-70
2023/07/21 07:42:22;;;;;;;5.07;2.58;;;;;;;20.23;54.63;101261.63;6112371;19;20022;-70
2023/07/21 07:44:33;;;;;;;4.20;2.80;;;;;;;20.28;54.77;101262.13;6110338;19;20054;-70
2023/07/21 07:46:41;;;;;;;4.90;2.20;;;;;;;20.08;53.37;101267.09;6111066;19;20547;-71
2023/07/21 07:48:47;;;;;;;4.75;2.65;;;;;;;20.28;52.89;101262.97;6110234;19;20014;-71
2023/07/21 07:50:53;;;;;;;6.18;2.50;;;;;;;20.17;54.18;101266.44;6112721;19;20022;-70
2023/07/21 07:53:01;;;;;;;5.18;3.10;;;;;;;20.46;55.10;101268.75;6110321;19;20006;-74
2023/07/21 07:55:07;;;;;;;6.63;3.55;;;;;;;20.42;54.90;101261.09;6111519;19;20011;-73
2023/07/21 07:57:14;;;;;;;3.83;2.90;;;;;;;20.24;55.31;101263.31;6111444;19;20011;-74
2023/07/21 07:59:20;;;;;;;5.78;3.47;;;;;;;19.96;55.73;101268.03;6111543;19;20403;-74
2023/07/21 08:01:26;;;;;;;5.47;3.42;;;;;;;20.20;55.79;101264.53;6112258;19;20017;-73
2023/07/21 08:03:31;;;;;;;5.43;3.35;;;;;;;20.38;55.01;101260.47;6111633;19;20053;-70
2023/07/21 08:05:39;;;;;;;10.77;4.18;;;;;;;20.62;56.41;101263.13;6109724;19;20382;-70
2023/07/21 08:07:44;;;;;;;7.13;4.43;;;;;;;20.53;56.38;101261.97;6106286;19;20394;-71
2023/07/21 08:09:51;;;;;;;9.35;3.88;;;;;;;21.12;54.45;101261.06;6110489;19;20025;-70
2023/07/21 08:11:56;;;;;;;6.80;3.63;;;;;;;21.54;53.01;101258.66;6107197;19;20011;-70
2023/07/21 08:14:04;;;;;;;5.50;3.42;;;;;;;21.81;54.13;101257.41;6111808;19;20045;-70
2023/07/21 08:16:11;;;;;;;6.70;3.60;;;;;;;21.73;51.86;101260.69;6109595;19;20006;-70
2023/07/21 08:18:16;;;;;;;6.43;3.08;;;;;;;21.90;51.62;101260.16;6109308;19;20487;-70
2023/07/21 08:20:23;;;;;;;8.80;3.25;;;;;;;22.35;50.22;101256.50;6108891;19;20042;-71
2023/07/21 08:22:28;;;;;;;8.52;3.20;;;;;;;22.32;49.96;101259.44;6110277;19;20022;-70
2023/07/21 08:24:33;;;;;;;7.00;3.15;;;;;;;21.89;50.27;101261.13;6110085;19;20014;-71
2023/07/21 08:26:41;;;;;;;4.10;2.60;;;;;;;21.83;50.15;101258.13;6103181;19;20014;-70
2023/07/21 08:28:46;;;;;;;4.65;2.95;;;;;;;21.77;49.20;101264.81;6110129;19;20015;-70
2023/07/21 08:30:51;;;;;;;3.90;2.50;;;;;;;21.70;50.13;101264.47;6110630;19;20066;-69
2023/07/21 08:33:04;;;;;;;3.53;2.10;;;;;;;21.48;46.63;101265.34;6109713;19;20038;-70
2023/07/21 08:35:12;;;;;;;3.50;1.80;;;;;;;21.61;47.92;101267.00;6109537;19;20016;-74
2023/07/21 08:37:17;;;;;;;4.30;1.90;;;;;;;21.73;48.06;101255.34;6109735;19;20043;-74
2023/07/21 08:39:23;;;;;;;4.03;2.08;;;;;;;21.30;49.51;101256.09;6112737;19;20003;-73
2023/07/21 08:41:28;;;;;;;3.67;1.77;;;;;;;21.30;46.39;101261.44;6115929;19;20010;-70
2023/07/21 08:43:36;;;;;;;1.95;1.60;;;;;;;20.82;46.47;101264.25;6114306;19;20018;-70
2023/07/21 08:45:42;;;;;;;2.65;1.60;;;;;;;21.64;45.37;101258.75;6114771;19;20097;-69
2023/07/21 08:47:48;;;;;;;2.35;1.80;;;;;;;21.69;45.25;101248.53;6114947;19;20502;-69
2023/07/21 08:49:53;;;;;;;3.85;2.40;;;;;;;21.44;46.95;101252.34;6115069;19;20017;-70
2023/07/21 08:51:58;;;;;;;4.97;2.33;;;;;;;21.44;47.84;101253.19;6113025;19;20014;-69
2023/07/21 08:54:03;;;;;;;3.45;2.05;;;;;;;21.97;47.88;101254.31;6113317;19;20102;-70
2023/07/21 08:56:09;;;;;;;3.10;2.08;;;;;;;22.36;47.66;101255.53;6115512;19;20073;-70
2023/07/21 08:58:16;;;;;;;3.55;2.25;;;;;;;23.26;45.17;101254.16;6115684;19;20555;-70
2023/07/21 09:00:26;;;;;;;2.50;1.90;;;;;;;23.63;45.06;101249.91;6116552;19;20023;-69
2023/07/21 09:02:41;;;;;;;2.80;2.10;;;;;;;23.62;44.11;101244.69;6117135;19;20019;-70
2023/07/21 09:04:47;;;;;;;4.25;2.13;;;;;;;23.46;44.33;101245.22;6116655;19;20034;-69
2023/07/21 09:06:54;;;;;;;3.53;2.00;;;;;;;23.23;44.95;101242.72;6115984;19;20483;-70
2023/07/21 09:08:59;;;;;;;4.78;1.88;;;;;;;23.33;44.05;101247.25;6114141;19;20042;-70
2023/07/21 09:11:06;;;;;;;5.57;2.22;;;;;;;23.37;44.71;101244.19;6116336;19;20019;-70
2023/07/21 09:13:14;;;;;;;3.78;1.90;;;;;;;22.73;45.45;101242.56;6115397;19;20026;-70
2023/07/21 09:15:25;;;;;;;4.32;2.00;;;;;;;22.99;46.31;101250.22;6114687;19;20002;-69
2023/07/21 09:17:31;;;;;;;3.93;2.40;;;;;;;23.06;44.49;101237.13;6116766;19;20018;-70
2023/07/21 09:19:38;;;;;;;3.75;2.00;;;;;;;23.58;43.98;101238.75;6115430;19;20339;-70
2023/07/21 09:21:44;;;;;;;2.97;1.90;;;;;;;22.83;43.83;101231.91;6115000;19;20486;-71
2023/07/21 09:23:49;;;;;;;3.13;2.00;;;;;;;22.55;45.32;101241.44;6114660;19;20014;-71
2023/07/21 09:25:55;;;;;;;2.63;1.73;;;;;;;22.45;45.12;101248.56;6111815;19;20018;-71
2023/07/21 09:28:03;;;;;;;3.50;2.00;;;;;;;22.62;46.63;101247.13;6115137;19;20014;-72
2023/07/21 09:30:10;;;;;;;2.63;1.95;;;;;;;22.69;46.11;101245.63;6092645;19;20036;-71
2023/07/21 09:32:19;;;;;;;4.65;2.15;;;;;;;21.81;48.89;101249.38;6113575;19;20043;-70
2023/07/21 09:34:24;;;;;;;1.95;1.85;;;;;;;21.43;50.61;101247.94;6116673;19;20139;-70
2023/07/21 09:36:29;;;;;;;4.10;2.25;;;;;;;21.39;51.03;101250.03;6115472;19;20007;-70
2023/07/21 09:38:36;;;;;;;3.08;2.13;;;;;;;21.45;51.48;101246.84;6113559;19;20042;-71
2023/07/21 09:40:45;;;;;;;3.58;2.10;;;;;;;21.62;52.29;101244.66;6116538;19;20368;-71
2023/07/21 09:42:49;;;;;;;3.63;2.20;;;;;;;21.96;52.22;101247.25;6114273;19;20084;-71
2023/07/21 09:44:54;;;;;;;2.85;2.08;;;;;;;21.55;52.91;101251.47;6112900;19;20035;-71
2023/07/21 09:46:59;;;;;;;4.32;2.83;;;;;;;20.57;55.29;101246.63;6115687;19;20010;-71
2023/07/21 09:49:07;;;;;;;5.32;2.70;;;;;;;20.22;56.98;101252.78;6112994;19;20011;-72